グアム の空港の天気 - METARとTAF

グアム国際空港 ( PGUM / GUM ) - グアム ハガニア
飛行場実況気象(Metar)
観測時間03/30 19:54 ChST (03/30 09:54 UTC)
風向・風速東北東 7m/s 瞬間風速11m/s
視程10km以上
天気現象
少しの雲 雲底高度 640m
全天の4割程度の雲 雲底高度 880m
全天の8割程度の雲 雲底高度 1400m
気温27.2℃
湿度85%
気圧1014hPa
METARPGUM 300954Z 06013G21KT 9SM FEW021 SCT029 BKN046 27/24 A2997 RMK AO2 RAB00E09B28E40 SLP140 P0000 T02720244
過去の天気等 Google飛行場航空写真 Wunderground天気予報

過去48時間のMETAR

飛行場予報(TAF)
発表時間: 3/30 15:30 ChST (3/30 05:30 UTC)
予報対象時間: 30日16時 ChST ~ 31日22時 ChST
風向・風速東北東 9m/s 瞬間風速 14m/s
視程10km以上
天気現象周辺でしゅう雨
全天の4割程度の雲 雲底高度 730m
全天の8割程度の雲 雲底高度 1,520m
全天の8割程度の雲 雲底高度 3,050m
30日20時 ChST から
風向・風速東北東 7m/s
視程10km以上
天気現象周辺でしゅう雨
全天の4割程度の雲 雲底高度 670m
全天の4割程度の雲 雲底高度 1,220m
全天の8割程度の雲 雲底高度 3,050m
PGUM 300530Z 3006/3112 07018G27KT P6SM VCSH SCT024 BKN050 BKN100
FM301000 07013KT P6SM VCSH SCT022 SCT040 BKN100